Time;durP1;ratioP1;P1;durP2;ratioP2;P2;SDS_P1;SDS_P2;PMS_P1;PMS_P2;Temp;Humidity;BMP_temperature;BMP_pressure;BME280_temperature;BME280_humidity;BME280_pressure;Samples;Min_cycle;Max_cycle;Signal;HPM_P1;HPM_P2
2022/06/29 00:00:40;;;;;;;34.34999;30.8;;;;;;;17.54;97.88184;95235.85;;;;
2022/06/29 00:01:41;;;;;;;34.34999;30.8;;;;;;;17.54;97.88184;95235.85;;;;
2022/06/29 00:02:42;;;;;;;34.34999;30.8;;;;;;;17.54;97.88184;95235.85;;;;
2022/06/29 00:03:44;;;;;;;34.34999;30.8;;;;;;;17.54;97.88184;95235.85;;;;
2022/06/29 00:04:45;;;;;;;34.34999;30.8;;;;;;;17.54;97.88184;95235.85;;;;
2022/06/29 00:05:45;;;;;;;34.34999;30.8;;;;;;;17.54;97.88184;95235.85;;;;
2022/06/29 00:06:46;;;;;;;34.34999;30.8;;;;;;;17.54;97.88184;95235.85;;;;
2022/06/29 00:07:48;;;;;;;34.34999;30.8;;;;;;;17.54;97.88184;95235.85;;;;
2022/06/29 00:08:50;;;;;;;34.34999;30.8;;;;;;;17.54;97.88184;95235.85;;;;
2022/06/29 00:09:50;;;;;;;30.1;27.25;;;;;;;17.69;98.05762;95221.64;;;;
2022/06/29 00:10:51;;;;;;;30.1;27.25;;;;;;;17.69;98.05762;95221.64;;;;
2022/06/29 00:11:51;;;;;;;30.1;27.25;;;;;;;17.69;98.05762;95221.64;;;;
2022/06/29 00:12:52;;;;;;;30.1;27.25;;;;;;;17.69;98.05762;95221.64;;;;
2022/06/29 00:13:53;;;;;;;30.1;27.25;;;;;;;17.69;98.05762;95221.64;;;;
2022/06/29 00:14:55;;;;;;;30.1;27.25;;;;;;;17.69;98.05762;95221.64;;;;
2022/06/29 00:15:56;;;;;;;30.1;27.25;;;;;;;17.69;98.05762;95221.64;;;;
2022/06/29 00:16:56;;;;;;;30.1;27.25;;;;;;;17.69;98.05762;95221.64;;;;
2022/06/29 00:17:57;;;;;;;30.1;27.25;;;;;;;17.69;98.05762;95221.64;;;;
2022/06/29 00:18:57;;;;;;;30.1;27.25;;;;;;;17.69;98.05762;95221.64;;;;
2022/06/29 00:19:57;;;;;;;30.1;27.25;;;;;;;17.69;98.05762;95221.64;;;;
2022/06/29 00:21:00;;;;;;;25.75;23.35;;;;;;;17.74;97.9707;95213.13;;;;
2022/06/29 00:22:00;;;;;;;25.75;23.35;;;;;;;17.74;97.9707;95213.13;;;;
2022/06/29 00:23:01;;;;;;;25.75;23.35;;;;;;;17.74;97.9707;95213.13;;;;
2022/06/29 00:24:01;;;;;;;25.75;23.35;;;;;;;17.74;97.9707;95213.13;;;;
2022/06/29 00:25:02;;;;;;;25.75;23.35;;;;;;;17.74;97.9707;95213.13;;;;
2022/06/29 00:26:03;;;;;;;25.75;23.35;;;;;;;17.74;97.9707;95213.13;;;;
2022/06/29 00:27:04;;;;;;;25.75;23.35;;;;;;;17.74;97.9707;95213.13;;;;
2022/06/29 00:28:05;;;;;;;25.75;23.35;;;;;;;17.74;97.9707;95213.13;;;;
2022/06/29 00:29:06;;;;;;;25.75;23.35;;;;;;;17.74;97.9707;95213.13;;;;
2022/06/29 00:30:06;;;;;;;25.75;23.35;;;;;;;17.74;97.9707;95213.13;;;;
2022/06/29 00:31:08;;;;;;;25.75;23.35;;;;;;;17.74;97.9707;95213.13;;;;
2022/06/29 00:32:09;;;;;;;25.65;23.05;;;;;;;17.81;98.0498;95190.58;;;;
2022/06/29 00:33:09;;;;;;;25.65;23.05;;;;;;;17.81;98.0498;95190.58;;;;
2022/06/29 00:34:10;;;;;;;25.65;23.05;;;;;;;17.81;98.0498;95190.58;;;;
2022/06/29 00:35:10;;;;;;;25.65;23.05;;;;;;;17.81;98.0498;95190.58;;;;
2022/06/29 00:36:11;;;;;;;25.65;23.05;;;;;;;17.81;98.0498;95190.58;;;;
2022/06/29 00:37:11;;;;;;;25.65;23.05;;;;;;;17.81;98.0498;95190.58;;;;
2022/06/29 00:38:12;;;;;;;25.65;23.05;;;;;;;17.81;98.0498;95190.58;;;;
2022/06/29 00:39:13;;;;;;;25.65;23.05;;;;;;;17.81;98.0498;95190.58;;;;
2022/06/29 00:40:15;;;;;;;25.65;23.05;;;;;;;17.81;98.0498;95190.58;;;;
2022/06/29 00:41:16;;;;;;;25.65;23.05;;;;;;;17.81;98.0498;95190.58;;;;
2022/06/29 00:42:16;;;;;;;22.7;20.5;;;;;;;17.8;97.90723;95161.8;;;;
2022/06/29 00:43:17;;;;;;;22.7;20.5;;;;;;;17.8;97.90723;95161.8;;;;
2022/06/29 00:44:17;;;;;;;22.7;20.5;;;;;;;17.8;97.90723;95161.8;;;;
2022/06/29 00:45:19;;;;;;;22.7;20.5;;;;;;;17.8;97.90723;95161.8;;;;
2022/06/29 00:46:20;;;;;;;22.7;20.5;;;;;;;17.8;97.90723;95161.8;;;;
2022/06/29 00:47:22;;;;;;;22.7;20.5;;;;;;;17.8;97.90723;95161.8;;;;
2022/06/29 00:48:22;;;;;;;22.7;20.5;;;;;;;17.8;97.90723;95161.8;;;;
2022/06/29 00:49:23;;;;;;;22.7;20.5;;;;;;;17.8;97.90723;95161.8;;;;
2022/06/29 00:50:25;;;;;;;22.7;20.5;;;;;;;17.8;97.90723;95161.8;;;;
2022/06/29 00:51:30;;;;;;;22.7;20.5;;;;;;;17.8;97.90723;95161.8;;;;
2022/06/29 00:52:33;;;;;;;22.35;20.3;;;;;;;17.81;97.96484;95152.22;;;;
2022/06/29 00:53:41;;;;;;;22.35;20.3;;;;;;;17.81;97.96484;95152.22;;;;
2022/06/29 00:54:45;;;;;;;22.35;20.3;;;;;;;17.81;97.96484;95152.22;;;;
2022/06/29 00:55:51;;;;;;;22.35;20.3;;;;;;;17.81;97.96484;95152.22;;;;
2022/06/29 00:56:57;;;;;;;22.35;20.3;;;;;;;17.81;97.96484;95152.22;;;;
2022/06/29 00:58:03;;;;;;;22.35;20.3;;;;;;;17.81;97.96484;95152.22;;;;
2022/06/29 00:59:04;;;;;;;22.35;20.3;;;;;;;17.81;97.96484;95152.22;;;;
2022/06/29 01:00:05;;;;;;;22.35;20.3;;;;;;;17.81;97.96484;95152.22;;;;
2022/06/29 01:01:07;;;;;;;22.35;20.3;;;;;;;17.81;97.96484;95152.22;;;;
2022/06/29 01:02:09;;;;;;;22.35;20.3;;;;;;;17.81;97.96484;95152.22;;;;
2022/06/29 01:03:10;;;;;;;23.05;20.85;;;;;;;17.78;97.85938;95162.62;;;;
2022/06/29 01:04:11;;;;;;;23.05;20.85;;;;;;;17.78;97.85938;95162.62;;;;
2022/06/29 01:05:12;;;;;;;23.05;20.85;;;;;;;17.78;97.85938;95162.62;;;;
2022/06/29 01:06:12;;;;;;;23.05;20.85;;;;;;;17.78;97.85938;95162.62;;;;
2022/06/29 01:07:13;;;;;;;23.05;20.85;;;;;;;17.78;97.85938;95162.62;;;;
2022/06/29 01:08:14;;;;;;;23.05;20.85;;;;;;;17.78;97.85938;95162.62;;;;
2022/06/29 01:09:15;;;;;;;23.05;20.85;;;;;;;17.78;97.85938;95162.62;;;;
2022/06/29 01:10:15;;;;;;;23.05;20.85;;;;;;;17.78;97.85938;95162.62;;;;
2022/06/29 01:11:16;;;;;;;23.05;20.85;;;;;;;17.78;97.85938;95162.62;;;;
2022/06/29 01:12:16;;;;;;;23.05;20.85;;;;;;;17.78;97.85938;95162.62;;;;
2022/06/29 01:13:17;;;;;;;23.05;20.85;;;;;;;17.78;97.85938;95162.62;;;;
2022/06/29 01:14:17;;;;;;;20.4;18.4;;;;;;;17.83;98.02148;95204.1;;;;
2022/06/29 01:15:18;;;;;;;20.4;18.4;;;;;;;17.83;98.02148;95204.1;;;;
2022/06/29 01:16:19;;;;;;;20.4;18.4;;;;;;;17.83;98.02148;95204.1;;;;
2022/06/29 01:17:19;;;;;;;20.4;18.4;;;;;;;17.83;98.02148;95204.1;;;;
2022/06/29 01:18:22;;;;;;;20.4;18.4;;;;;;;17.83;98.02148;95204.1;;;;
2022/06/29 01:19:22;;;;;;;20.4;18.4;;;;;;;17.83;98.02148;95204.1;;;;
2022/06/29 01:20:23;;;;;;;20.4;18.4;;;;;;;17.83;98.02148;95204.1;;;;
2022/06/29 01:21:25;;;;;;;20.4;18.4;;;;;;;17.83;98.02148;95204.1;;;;
2022/06/29 01:22:27;;;;;;;20.4;18.4;;;;;;;17.83;98.02148;95204.1;;;;
2022/06/29 01:23:28;;;;;;;20.4;18.4;;;;;;;17.83;98.02148;95204.1;;;;
2022/06/29 01:24:28;;;;;;;20.4;18.4;;;;;;;17.83;98.02148;95204.1;;;;
2022/06/29 01:25:29;;;;;;;18.75;16.9;;;;;;;17.84;97.92578;95185.24;;;;
2022/06/29 01:26:29;;;;;;;18.75;16.9;;;;;;;17.84;97.92578;95185.24;;;;
2022/06/29 01:27:30;;;;;;;18.75;16.9;;;;;;;17.84;97.92578;95185.24;;;;
2022/06/29 01:28:30;;;;;;;18.75;16.9;;;;;;;17.84;97.92578;95185.24;;;;
2022/06/29 01:29:31;;;;;;;18.75;16.9;;;;;;;17.84;97.92578;95185.24;;;;
2022/06/29 01:30:32;;;;;;;18.75;16.9;;;;;;;17.84;97.92578;95185.24;;;;
2022/06/29 01:31:33;;;;;;;18.75;16.9;;;;;;;17.84;97.92578;95185.24;;;;
2022/06/29 01:32:33;;;;;;;18.75;16.9;;;;;;;17.84;97.92578;95185.24;;;;
2022/06/29 01:33:34;;;;;;;18.75;16.9;;;;;;;17.84;97.92578;95185.24;;;;
2022/06/29 01:34:35;;;;;;;18.75;16.9;;;;;;;17.84;97.92578;95185.24;;;;
2022/06/29 01:35:36;;;;;;;17.95;16.2;;;;;;;17.86;98.03027;95158.9;;;;
2022/06/29 01:36:36;;;;;;;17.95;16.2;;;;;;;17.86;98.03027;95158.9;;;;
2022/06/29 01:37:37;;;;;;;17.95;16.2;;;;;;;17.86;98.03027;95158.9;;;;
2022/06/29 01:38:39;;;;;;;17.95;16.2;;;;;;;17.86;98.03027;95158.9;;;;
2022/06/29 01:39:40;;;;;;;17.95;16.2;;;;;;;17.86;98.03027;95158.9;;;;
2022/06/29 01:40:41;;;;;;;17.95;16.2;;;;;;;17.86;98.03027;95158.9;;;;
2022/06/29 01:41:42;;;;;;;17.95;16.2;;;;;;;17.86;98.03027;95158.9;;;;
2022/06/29 01:42:42;;;;;;;17.95;16.2;;;;;;;17.86;98.03027;95158.9;;;;
2022/06/29 01:43:43;;;;;;;17.95;16.2;;;;;;;17.86;98.03027;95158.9;;;;
2022/06/29 01:44:43;;;;;;;17.95;16.2;;;;;;;17.86;98.03027;95158.9;;;;
2022/06/29 01:45:44;;;;;;;17.95;16.2;;;;;;;17.86;98.03027;95158.9;;;;
2022/06/29 01:46:44;;;;;;;17.2;15.4;;;;;;;17.81;97.91992;95146.45;;;;
2022/06/29 01:47:45;;;;;;;17.2;15.4;;;;;;;17.81;97.91992;95146.45;;;;
2022/06/29 01:48:46;;;;;;;17.2;15.4;;;;;;;17.81;97.91992;95146.45;;;;
2022/06/29 01:49:46;;;;;;;17.2;15.4;;;;;;;17.81;97.91992;95146.45;;;;
2022/06/29 01:50:47;;;;;;;17.2;15.4;;;;;;;17.81;97.91992;95146.45;;;;
2022/06/29 01:51:48;;;;;;;17.2;15.4;;;;;;;17.81;97.91992;95146.45;;;;
2022/06/29 01:52:49;;;;;;;17.2;15.4;;;;;;;17.81;97.91992;95146.45;;;;
2022/06/29 01:53:49;;;;;;;17.2;15.4;;;;;;;17.81;97.91992;95146.45;;;;
2022/06/29 01:54:50;;;;;;;17.2;15.4;;;;;;;17.81;97.91992;95146.45;;;;
2022/06/29 01:55:50;;;;;;;17.2;15.4;;;;;;;17.81;97.91992;95146.45;;;;
2022/06/29 01:56:51;;;;;;;17.45;15.7;;;;;;;17.76;97.96387;95108.99;;;;
2022/06/29 01:57:51;;;;;;;17.45;15.7;;;;;;;17.76;97.96387;95108.99;;;;
2022/06/29 01:58:52;;;;;;;17.45;15.7;;;;;;;17.76;97.96387;95108.99;;;;
2022/06/29 01:59:52;;;;;;;17.45;15.7;;;;;;;17.76;97.96387;95108.99;;;;
2022/06/29 02:00:53;;;;;;;17.45;15.7;;;;;;;17.76;97.96387;95108.99;;;;
2022/06/29 02:01:53;;;;;;;17.45;15.7;;;;;;;17.76;97.96387;95108.99;;;;
2022/06/29 02:02:54;;;;;;;17.45;15.7;;;;;;;17.76;97.96387;95108.99;;;;
2022/06/29 02:03:54;;;;;;;17.45;15.7;;;;;;;17.76;97.96387;95108.99;;;;
2022/06/29 02:04:55;;;;;;;17.45;15.7;;;;;;;17.76;97.96387;95108.99;;;;
2022/06/29 02:05:55;;;;;;;17.45;15.7;;;;;;;17.76;97.96387;95108.99;;;;
2022/06/29 02:06:56;;;;;;;17.45;15.7;;;;;;;17.76;97.96387;95108.99;;;;
2022/06/29 02:07:56;;;;;;;18.3;16.35;;;;;;;17.56;97.71191;95073.32;;;;
2022/06/29 02:08:57;;;;;;;18.3;16.35;;;;;;;17.56;97.71191;95073.32;;;;
2022/06/29 02:09:58;;;;;;;18.3;16.35;;;;;;;17.56;97.71191;95073.32;;;;
2022/06/29 02:10:58;;;;;;;18.3;16.35;;;;;;;17.56;97.71191;95073.32;;;;
2022/06/29 02:11:59;;;;;;;18.3;16.35;;;;;;;17.56;97.71191;95073.32;;;;
2022/06/29 02:13:00;;;;;;;18.3;16.35;;;;;;;17.56;97.71191;95073.32;;;;
2022/06/29 02:14:00;;;;;;;18.3;16.35;;;;;;;17.56;97.71191;95073.32;;;;
2022/06/29 02:15:01;;;;;;;18.3;16.35;;;;;;;17.56;97.71191;95073.32;;;;
2022/06/29 02:16:02;;;;;;;18.3;16.35;;;;;;;17.56;97.71191;95073.32;;;;
2022/06/29 02:17:03;;;;;;;18.3;16.35;;;;;;;17.56;97.71191;95073.32;;;;
2022/06/29 02:18:03;;;;;;;17;15.35;;;;;;;17.48;97.93457;95206.52;;;;
2022/06/29 02:19:04;;;;;;;17;15.35;;;;;;;17.48;97.93457;95206.52;;;;
2022/06/29 02:20:05;;;;;;;17;15.35;;;;;;;17.48;97.93457;95206.52;;;;
2022/06/29 02:21:06;;;;;;;17;15.35;;;;;;;17.48;97.93457;95206.52;;;;
2022/06/29 02:22:07;;;;;;;17;15.35;;;;;;;17.48;97.93457;95206.52;;;;
2022/06/29 02:23:08;;;;;;;17;15.35;;;;;;;17.48;97.93457;95206.52;;;;
2022/06/29 02:24:08;;;;;;;17;15.35;;;;;;;17.48;97.93457;95206.52;;;;
2022/06/29 02:25:09;;;;;;;17;15.35;;;;;;;17.48;97.93457;95206.52;;;;
2022/06/29 02:26:09;;;;;;;17;15.35;;;;;;;17.48;97.93457;95206.52;;;;
2022/06/29 02:27:10;;;;;;;17;15.35;;;;;;;17.48;97.93457;95206.52;;;;
2022/06/29 02:28:10;;;;;;;17;15.35;;;;;;;17.48;97.93457;95206.52;;;;
2022/06/29 02:29:11;;;;;;;17.3;15.6;;;;;;;17.47;97.98633;95182.2;;;;
2022/06/29 02:30:12;;;;;;;17.3;15.6;;;;;;;17.47;97.98633;95182.2;;;;
2022/06/29 02:36:26;;;;;;;17.3;15.6;;;;;;;17.47;97.98633;95182.2;;;;
2022/06/29 02:37:27;;;;;;;17.3;15.6;;;;;;;17.47;97.98633;95182.2;;;;
2022/06/29 02:38:27;;;;;;;17.3;15.6;;;;;;;17.47;97.98633;95182.2;;;;
2022/06/29 02:39:28;;;;;;;18.6;16.7;;;;;;;17.52;98.22754;95153.24;;;;
2022/06/29 02:40:28;;;;;;;18.6;16.7;;;;;;;17.52;98.22754;95153.24;;;;
2022/06/29 02:41:29;;;;;;;18.6;16.7;;;;;;;17.52;98.22754;95153.24;;;;
2022/06/29 02:42:29;;;;;;;18.6;16.7;;;;;;;17.52;98.22754;95153.24;;;;
2022/06/29 02:43:30;;;;;;;18.6;16.7;;;;;;;17.52;98.22754;95153.24;;;;
2022/06/29 02:44:30;;;;;;;18.6;16.7;;;;;;;17.52;98.22754;95153.24;;;;
2022/06/29 02:45:31;;;;;;;18.6;16.7;;;;;;;17.52;98.22754;95153.24;;;;
2022/06/29 02:46:31;;;;;;;18.6;16.7;;;;;;;17.52;98.22754;95153.24;;;;
2022/06/29 02:47:32;;;;;;;18.6;16.7;;;;;;;17.52;98.22754;95153.24;;;;
2022/06/29 02:48:33;;;;;;;18.6;16.7;;;;;;;17.52;98.22754;95153.24;;;;
2022/06/29 02:49:33;;;;;;;18.6;16.7;;;;;;;17.52;98.22754;95153.24;;;;
2022/06/29 02:50:34;;;;;;;18.8;16.9;;;;;;;17.48;98.09766;95095.19;;;;
2022/06/29 02:51:34;;;;;;;18.8;16.9;;;;;;;17.48;98.09766;95095.19;;;;
2022/06/29 02:52:35;;;;;;;18.8;16.9;;;;;;;17.48;98.09766;95095.19;;;;
2022/06/29 02:53:35;;;;;;;18.8;16.9;;;;;;;17.48;98.09766;95095.19;;;;
2022/06/29 02:54:36;;;;;;;18.8;16.9;;;;;;;17.48;98.09766;95095.19;;;;
2022/06/29 02:55:37;;;;;;;18.8;16.9;;;;;;;17.48;98.09766;95095.19;;;;
2022/06/29 02:56:37;;;;;;;18.8;16.9;;;;;;;17.48;98.09766;95095.19;;;;
2022/06/29 02:57:37;;;;;;;18.8;16.9;;;;;;;17.48;98.09766;95095.19;;;;
2022/06/29 02:58:38;;;;;;;18.8;16.9;;;;;;;17.48;98.09766;95095.19;;;;
2022/06/29 02:59:38;;;;;;;18.8;16.9;;;;;;;17.48;98.09766;95095.19;;;;
2022/06/29 03:00:39;;;;;;;18.45;16.5;;;;;;;17.32;98.0293;95115.65;;;;
2022/06/29 03:01:39;;;;;;;18.45;16.5;;;;;;;17.32;98.0293;95115.65;;;;
2022/06/29 03:02:40;;;;;;;18.45;16.5;;;;;;;17.32;98.0293;95115.65;;;;
2022/06/29 03:03:41;;;;;;;18.45;16.5;;;;;;;17.32;98.0293;95115.65;;;;
2022/06/29 03:04:42;;;;;;;18.45;16.5;;;;;;;17.32;98.0293;95115.65;;;;
2022/06/29 03:05:42;;;;;;;18.45;16.5;;;;;;;17.32;98.0293;95115.65;;;;
2022/06/29 03:06:43;;;;;;;18.45;16.5;;;;;;;17.32;98.0293;95115.65;;;;
2022/06/29 03:07:43;;;;;;;18.45;16.5;;;;;;;17.32;98.0293;95115.65;;;;
2022/06/29 03:08:44;;;;;;;18.45;16.5;;;;;;;17.32;98.0293;95115.65;;;;
2022/06/29 03:09:45;;;;;;;18.45;16.5;;;;;;;17.32;98.0293;95115.65;;;;
2022/06/29 03:10:45;;;;;;;18.45;16.5;;;;;;;17.32;98.0293;95115.65;;;;
2022/06/29 03:11:46;;;;;;;20.95;18.7;;;;;;;17.1;97.84082;95115.34;;;;
2022/06/29 03:12:46;;;;;;;20.95;18.7;;;;;;;17.1;97.84082;95115.34;;;;
2022/06/29 03:13:47;;;;;;;20.95;18.7;;;;;;;17.1;97.84082;95115.34;;;;
2022/06/29 03:14:47;;;;;;;20.95;18.7;;;;;;;17.1;97.84082;95115.34;;;;
2022/06/29 03:15:48;;;;;;;20.95;18.7;;;;;;;17.1;97.84082;95115.34;;;;
2022/06/29 03:16:49;;;;;;;20.95;18.7;;;;;;;17.1;97.84082;95115.34;;;;
2022/06/29 03:17:50;;;;;;;20.95;18.7;;;;;;;17.1;97.84082;95115.34;;;;
2022/06/29 03:18:51;;;;;;;20.95;18.7;;;;;;;17.1;97.84082;95115.34;;;;
2022/06/29 03:19:52;;;;;;;20.95;18.7;;;;;;;17.1;97.84082;95115.34;;;;
2022/06/29 03:20:52;;;;;;;20.95;18.7;;;;;;;17.1;97.84082;95115.34;;;;
2022/06/29 03:21:53;;;;;;;20;18;;;;;;;16.92;97.87793;95153.53;;;;
2022/06/29 03:22:54;;;;;;;20;18;;;;;;;16.92;97.87793;95153.53;;;;
2022/06/29 03:23:54;;;;;;;20;18;;;;;;;16.92;97.87793;95153.53;;;;
2022/06/29 03:24:55;;;;;;;20;18;;;;;;;16.92;97.87793;95153.53;;;;
2022/06/29 03:25:55;;;;;;;20;18;;;;;;;16.92;97.87793;95153.53;;;;
2022/06/29 03:26:56;;;;;;;20;18;;;;;;;16.92;97.87793;95153.53;;;;
2022/06/29 03:27:56;;;;;;;20;18;;;;;;;16.92;97.87793;95153.53;;;;
2022/06/29 03:28:57;;;;;;;20;18;;;;;;;16.92;97.87793;95153.53;;;;
2022/06/29 03:29:57;;;;;;;20;18;;;;;;;16.92;97.87793;95153.53;;;;
2022/06/29 03:30:58;;;;;;;20;18;;;;;;;16.92;97.87793;95153.53;;;;
2022/06/29 03:31:58;;;;;;;20;18;;;;;;;16.92;97.87793;95153.53;;;;
2022/06/29 03:32:59;;;;;;;21.85;19.55;;;;;;;16.81;98.03711;95137.16;;;;
2022/06/29 03:33:59;;;;;;;21.85;19.55;;;;;;;16.81;98.03711;95137.16;;;;
2022/06/29 03:35:00;;;;;;;21.85;19.55;;;;;;;16.81;98.03711;95137.16;;;;
2022/06/29 03:36:00;;;;;;;21.85;19.55;;;;;;;16.81;98.03711;95137.16;;;;
2022/06/29 03:37:01;;;;;;;21.85;19.55;;;;;;;16.81;98.03711;95137.16;;;;
2022/06/29 03:38:02;;;;;;;21.85;19.55;;;;;;;16.81;98.03711;95137.16;;;;
2022/06/29 03:39:02;;;;;;;21.85;19.55;;;;;;;16.81;98.03711;95137.16;;;;
2022/06/29 03:40:03;;;;;;;21.85;19.55;;;;;;;16.81;98.03711;95137.16;;;;
2022/06/29 03:41:05;;;;;;;21.85;19.55;;;;;;;16.81;98.03711;95137.16;;;;
2022/06/29 03:42:05;;;;;;;21.85;19.55;;;;;;;16.81;98.03711;95137.16;;;;
2022/06/29 03:43:06;;;;;;;21.85;19.55;;;;;;;16.81;98.03711;95137.16;;;;
2022/06/29 03:44:07;;;;;;;21.85;19.55;;;;;;;16.81;98.03711;95137.16;;;;
2022/06/29 03:45:08;;;;;;;21.85;19.55;;;;;;;16.81;98.03711;95137.16;;;;
2022/06/29 03:46:10;;;;;;;21.85;19.55;;;;;;;16.81;98.03711;95137.16;;;;
2022/06/29 03:47:10;;;;;;;21.85;19.55;;;;;;;16.81;98.03711;95137.16;;;;
2022/06/29 03:48:11;;;;;;;21.85;19.55;;;;;;;16.81;98.03711;95137.16;;;;
2022/06/29 03:49:12;;;;;;;21.85;19.55;;;;;;;16.81;98.03711;95137.16;;;;
2022/06/29 03:50:12;;;;;;;21.85;19.55;;;;;;;16.81;98.03711;95137.16;;;;
2022/06/29 03:51:13;;;;;;;21.85;19.55;;;;;;;16.81;98.03711;95137.16;;;;
2022/06/29 03:52:13;;;;;;;21.85;19.55;;;;;;;16.81;98.03711;95137.16;;;;
2022/06/29 03:53:14;;;;;;;21.85;19.55;;;;;;;16.81;98.03711;95137.16;;;;
2022/06/29 03:54:15;;;;;;;20.35;18.2;;;;;;;16.98;98.55176;95152.12;;;;
2022/06/29 03:55:16;;;;;;;20.35;18.2;;;;;;;16.98;98.55176;95152.12;;;;
2022/06/29 03:56:17;;;;;;;20.35;18.2;;;;;;;16.98;98.55176;95152.12;;;;
2022/06/29 03:57:17;;;;;;;20.35;18.2;;;;;;;16.98;98.55176;95152.12;;;;
2022/06/29 03:58:18;;;;;;;20.35;18.2;;;;;;;16.98;98.55176;95152.12;;;;
2022/06/29 03:59:18;;;;;;;20.35;18.2;;;;;;;16.98;98.55176;95152.12;;;;
2022/06/29 04:00:19;;;;;;;20.35;18.2;;;;;;;16.98;98.55176;95152.12;;;;
2022/06/29 04:01:19;;;;;;;20.35;18.2;;;;;;;16.98;98.55176;95152.12;;;;
2022/06/29 04:02:20;;;;;;;20.35;18.2;;;;;;;16.98;98.55176;95152.12;;;;
2022/06/29 04:03:20;;;;;;;20.35;18.2;;;;;;;16.98;98.55176;95152.12;;;;
2022/06/29 04:04:21;;;;;;;20.35;18.2;;;;;;;16.98;98.55176;95152.12;;;;
2022/06/29 04:05:21;;;;;;;20.5;18.6;;;;;;;17.16;98.74316;95176.2;;;;
2022/06/29 04:06:22;;;;;;;20.5;18.6;;;;;;;17.16;98.74316;95176.2;;;;
2022/06/29 04:07:23;;;;;;;20.5;18.6;;;;;;;17.16;98.74316;95176.2;;;;
2022/06/29 04:08:23;;;;;;;20.5;18.6;;;;;;;17.16;98.74316;95176.2;;;;
2022/06/29 04:09:24;;;;;;;20.5;18.6;;;;;;;17.16;98.74316;95176.2;;;;
2022/06/29 04:10:25;;;;;;;20.5;18.6;;;;;;;17.16;98.74316;95176.2;;;;
2022/06/29 04:11:49;;;;;;;20.5;18.6;;;;;;;17.16;98.74316;95176.2;;;;
2022/06/29 04:12:49;;;;;;;20.5;18.6;;;;;;;17.16;98.74316;95176.2;;;;
2022/06/29 04:13:50;;;;;;;20.5;18.6;;;;;;;17.16;98.74316;95176.2;;;;
2022/06/29 04:14:51;;;;;;;20.5;18.6;;;;;;;17.16;98.74316;95176.2;;;;
2022/06/29 04:15:51;;;;;;;18.05;16.2;;;;;;;17.24;98.60938;95165.97;;;;
2022/06/29 04:16:52;;;;;;;18.05;16.2;;;;;;;17.24;98.60938;95165.97;;;;
2022/06/29 04:17:54;;;;;;;18.05;16.2;;;;;;;17.24;98.60938;95165.97;;;;
2022/06/29 04:18:54;;;;;;;18.05;16.2;;;;;;;17.24;98.60938;95165.97;;;;
2022/06/29 04:19:54;;;;;;;18.05;16.2;;;;;;;17.24;98.60938;95165.97;;;;
2022/06/29 04:21:11;;;;;;;18.05;16.2;;;;;;;17.24;98.60938;95165.97;;;;
2022/06/29 04:22:11;;;;;;;18.05;16.2;;;;;;;17.24;98.60938;95165.97;;;;
2022/06/29 04:23:12;;;;;;;18.05;16.2;;;;;;;17.24;98.60938;95165.97;;;;
2022/06/29 04:24:12;;;;;;;18.05;16.2;;;;;;;17.24;98.60938;95165.97;;;;
2022/06/29 04:25:14;;;;;;;18.05;16.2;;;;;;;17.24;98.60938;95165.97;;;;
2022/06/29 04:26:14;;;;;;;17.8;16.1;;;;;;;17.4;98.80762;95160.6;;;;
2022/06/29 04:27:15;;;;;;;17.8;16.1;;;;;;;17.4;98.80762;95160.6;;;;
2022/06/29 04:28:16;;;;;;;17.8;16.1;;;;;;;17.4;98.80762;95160.6;;;;
2022/06/29 04:29:16;;;;;;;17.8;16.1;;;;;;;17.4;98.80762;95160.6;;;;
2022/06/29 04:30:17;;;;;;;17.8;16.1;;;;;;;17.4;98.80762;95160.6;;;;
2022/06/29 04:31:17;;;;;;;17.8;16.1;;;;;;;17.4;98.80762;95160.6;;;;
2022/06/29 04:32:18;;;;;;;17.8;16.1;;;;;;;17.4;98.80762;95160.6;;;;
2022/06/29 04:33:18;;;;;;;17.8;16.1;;;;;;;17.4;98.80762;95160.6;;;;
2022/06/29 04:34:19;;;;;;;17.8;16.1;;;;;;;17.4;98.80762;95160.6;;;;
2022/06/29 04:35:20;;;;;;;17.8;16.1;;;;;;;17.4;98.80762;95160.6;;;;
2022/06/29 04:36:21;;;;;;;17.8;16.1;;;;;;;17.4;98.80762;95160.6;;;;
2022/06/29 04:37:21;;;;;;;16.7;15.2;;;;;;;17.63;98.73633;95168.8;;;;
2022/06/29 04:38:22;;;;;;;16.7;15.2;;;;;;;17.63;98.73633;95168.8;;;;
2022/06/29 04:39:22;;;;;;;16.7;15.2;;;;;;;17.63;98.73633;95168.8;;;;
2022/06/29 04:40:23;;;;;;;16.7;15.2;;;;;;;17.63;98.73633;95168.8;;;;
2022/06/29 04:41:24;;;;;;;16.7;15.2;;;;;;;17.63;98.73633;95168.8;;;;
2022/06/29 04:42:24;;;;;;;16.7;15.2;;;;;;;17.63;98.73633;95168.8;;;;
2022/06/29 04:43:26;;;;;;;16.7;15.2;;;;;;;17.63;98.73633;95168.8;;;;
2022/06/29 04:44:26;;;;;;;16.7;15.2;;;;;;;17.63;98.73633;95168.8;;;;
2022/06/29 04:46:32;;;;;;;16.7;15.2;;;;;;;17.63;98.73633;95168.8;;;;
2022/06/29 04:47:33;;;;;;;16.6;14.95;;;;;;;17.93;98.85938;95169.78;;;;
2022/06/29 04:48:33;;;;;;;16.6;14.95;;;;;;;17.93;98.85938;95169.78;;;;
2022/06/29 04:49:34;;;;;;;16.6;14.95;;;;;;;17.93;98.85938;95169.78;;;;
2022/06/29 04:50:34;;;;;;;16.6;14.95;;;;;;;17.93;98.85938;95169.78;;;;
2022/06/29 04:51:35;;;;;;;16.6;14.95;;;;;;;17.93;98.85938;95169.78;;;;
2022/06/29 04:52:36;;;;;;;16.6;14.95;;;;;;;17.93;98.85938;95169.78;;;;
2022/06/29 04:53:37;;;;;;;16.6;14.95;;;;;;;17.93;98.85938;95169.78;;;;
2022/06/29 04:54:38;;;;;;;16.6;14.95;;;;;;;17.93;98.85938;95169.78;;;;
2022/06/29 04:55:38;;;;;;;16.6;14.95;;;;;;;17.93;98.85938;95169.78;;;;
2022/06/29 04:56:39;;;;;;;16.6;14.95;;;;;;;17.93;98.85938;95169.78;;;;
2022/06/29 04:57:39;;;;;;;16.6;14.95;;;;;;;17.93;98.85938;95169.78;;;;
2022/06/29 04:58:40;;;;;;;15.55;13.95;;;;;;;18.07;98.68164;95171.04;;;;
2022/06/29 04:59:41;;;;;;;15.55;13.95;;;;;;;18.07;98.68164;95171.04;;;;
2022/06/29 05:00:41;;;;;;;15.55;13.95;;;;;;;18.07;98.68164;95171.04;;;;
2022/06/29 05:01:43;;;;;;;15.55;13.95;;;;;;;18.07;98.68164;95171.04;;;;
2022/06/29 05:02:43;;;;;;;15.55;13.95;;;;;;;18.07;98.68164;95171.04;;;;
2022/06/29 05:03:44;;;;;;;15.55;13.95;;;;;;;18.07;98.68164;95171.04;;;;
2022/06/29 05:04:44;;;;;;;15.55;13.95;;;;;;;18.07;98.68164;95171.04;;;;
2022/06/29 05:05:47;;;;;;;15.55;13.95;;;;;;;18.07;98.68164;95171.04;;;;
2022/06/29 05:06:48;;;;;;;15.55;13.95;;;;;;;18.07;98.68164;95171.04;;;;
2022/06/29 05:07:48;;;;;;;15.55;13.95;;;;;;;18.07;98.68164;95171.04;;;;
2022/06/29 05:08:48;;;;;;;16.1;14.5;;;;;;;18.23;98.73145;95173.94;;;;
2022/06/29 05:09:49;;;;;;;16.1;14.5;;;;;;;18.23;98.73145;95173.94;;;;
2022/06/29 05:10:50;;;;;;;16.1;14.5;;;;;;;18.23;98.73145;95173.94;;;;
2022/06/29 05:11:51;;;;;;;16.1;14.5;;;;;;;18.23;98.73145;95173.94;;;;
2022/06/29 05:12:51;;;;;;;16.1;14.5;;;;;;;18.23;98.73145;95173.94;;;;
2022/06/29 05:13:52;;;;;;;16.1;14.5;;;;;;;18.23;98.73145;95173.94;;;;
2022/06/29 05:14:52;;;;;;;16.1;14.5;;;;;;;18.23;98.73145;95173.94;;;;
2022/06/29 05:15:53;;;;;;;16.1;14.5;;;;;;;18.23;98.73145;95173.94;;;;
2022/06/29 05:16:53;;;;;;;16.1;14.5;;;;;;;18.23;98.73145;95173.94;;;;
2022/06/29 05:17:54;;;;;;;16.1;14.5;;;;;;;18.23;98.73145;95173.94;;;;
2022/06/29 05:18:54;;;;;;;16.1;14.5;;;;;;;18.23;98.73145;95173.94;;;;
2022/06/29 05:19:55;;;;;;;16.45;14.95;;;;;;;18.48;98.62012;95157.2;;;;
2022/06/29 05:20:55;;;;;;;16.45;14.95;;;;;;;18.48;98.62012;95157.2;;;;
2022/06/29 05:21:56;;;;;;;16.45;14.95;;;;;;;18.48;98.62012;95157.2;;;;
2022/06/29 05:22:57;;;;;;;16.45;14.95;;;;;;;18.48;98.62012;95157.2;;;;
2022/06/29 05:23:57;;;;;;;16.45;14.95;;;;;;;18.48;98.62012;95157.2;;;;
2022/06/29 05:24:57;;;;;;;16.45;14.95;;;;;;;18.48;98.62012;95157.2;;;;
2022/06/29 05:25:58;;;;;;;16.45;14.95;;;;;;;18.48;98.62012;95157.2;;;;
2022/06/29 05:26:59;;;;;;;16.45;14.95;;;;;;;18.48;98.62012;95157.2;;;;
2022/06/29 05:27:59;;;;;;;16.45;14.95;;;;;;;18.48;98.62012;95157.2;;;;
2022/06/29 05:29:00;;;;;;;16.45;14.95;;;;;;;18.48;98.62012;95157.2;;;;
2022/06/29 05:30:00;;;;;;;16.9;15.4;;;;;;;18.7;98.39844;95168.08;;;;
2022/06/29 05:31:01;;;;;;;16.9;15.4;;;;;;;18.7;98.39844;95168.08;;;;
2022/06/29 05:32:02;;;;;;;16.9;15.4;;;;;;;18.7;98.39844;95168.08;;;;
2022/06/29 05:33:02;;;;;;;16.9;15.4;;;;;;;18.7;98.39844;95168.08;;;;
2022/06/29 05:34:04;;;;;;;16.9;15.4;;;;;;;18.7;98.39844;95168.08;;;;
2022/06/29 05:35:04;;;;;;;16.9;15.4;;;;;;;18.7;98.39844;95168.08;;;;
2022/06/29 05:36:07;;;;;;;16.9;15.4;;;;;;;18.7;98.39844;95168.08;;;;
2022/06/29 05:37:08;;;;;;;16.9;15.4;;;;;;;18.7;98.39844;95168.08;;;;
2022/06/29 05:38:09;;;;;;;16.9;15.4;;;;;;;18.7;98.39844;95168.08;;;;
2022/06/29 05:39:09;;;;;;;16.9;15.4;;;;;;;18.7;98.39844;95168.08;;;;
2022/06/29 05:40:10;;;;;;;16.9;15.4;;;;;;;18.7;98.39844;95168.08;;;;
2022/06/29 05:41:11;;;;;;;18.35;16.65;;;;;;;18.85;98.20215;95148.81;;;;
2022/06/29 05:42:12;;;;;;;18.35;16.65;;;;;;;18.85;98.20215;95148.81;;;;
2022/06/29 05:43:12;;;;;;;18.35;16.65;;;;;;;18.85;98.20215;95148.81;;;;
2022/06/29 05:44:13;;;;;;;18.35;16.65;;;;;;;18.85;98.20215;95148.81;;;;
2022/06/29 05:45:13;;;;;;;18.35;16.65;;;;;;;18.85;98.20215;95148.81;;;;
2022/06/29 05:46:14;;;;;;;18.35;16.65;;;;;;;18.85;98.20215;95148.81;;;;
2022/06/29 05:47:14;;;;;;;18.35;16.65;;;;;;;18.85;98.20215;95148.81;;;;
2022/06/29 05:48:15;;;;;;;18.35;16.65;;;;;;;18.85;98.20215;95148.81;;;;
2022/06/29 05:49:15;;;;;;;18.35;16.65;;;;;;;18.85;98.20215;95148.81;;;;